Surface Preassure
0:00 UTC
12:00 UTC (Click for larger versions)
Andrewsfield Outlook

Current time:


  06:24:22pm (GMT)      06:24:22pm (UTC)


Headline: Breezy and damp Wednesday morning but improving in the afternoon.

This Evening and Tonight: Cloud thickening from the west with outbreaks of rain spreading east, these more frequent over the hills. Becoming increasingly breezy but some strong winds over the hills. Minimum Temperature 7C.

Wednesday: A windy and rather wet start to the morning, but rain becoming more restricted to western hills by afternoon, with drier conditions to the east. Winds easing late afternoon. Maximum Temperature 13C.

Outlook for Thursday to Saturday: Generally cloudy, locally murky, but mainly dry with low cloud, mist and hill fog. Some limited bright or sunny spells where cloud breaks, although improving on Saturday. Generally mild.

Forecast

Weather warnings

Nearby METAR/TAF

Stansted (EGSS)


Current conditions: VFR

METAR: EGSS 131820Z AUTO 18006KT 9999 FEW031 09/06 Q1024

TAF: TAF EGSS 131703Z 1318/1424 22010KT 9999 FEW040 BECMG 1421/1424 8000 BKN008 PROB30 1423/1424 3000 BR BKN002

Southend (EGMC)


Current conditions: VFR

METAR: EGMC 131820Z 22007KT CAVOK 10/07 Q1025

TAF: TAF EGMC 131703Z 1318/1403 20009KT 9999 FEW030

RAF Wattisham (EGUW)


Current conditions: VFR

METAR: EGUW 131750Z 21005KT CAVOK 09/06 Q1024 BLU NOSIG

TAF: TAF EGUW 131638Z 1318/1324 21007KT 9999 FEW030